sensor_id;sensor_type;location;lat;lon;timestamp;P1;durP1;ratioP1;P2;durP2;ratioP2
44026;SDS011;29696;55.698;37.460;2022-07-29T00:00:59;4.07;;;2.60;;
44026;SDS011;29696;55.698;37.460;2022-07-29T00:03:26;1.88;;;1.30;;
44026;SDS011;29696;55.698;37.460;2022-07-29T00:05:52;7.50;;;1.55;;
44026;SDS011;29696;55.698;37.460;2022-07-29T00:08:19;4.90;;;2.15;;
44026;SDS011;29696;55.698;37.460;2022-07-29T00:10:45;2.80;;;1.30;;
44026;SDS011;29696;55.698;37.460;2022-07-29T00:13:12;2.67;;;1.70;;
44026;SDS011;29696;55.698;37.460;2022-07-29T00:15:38;4.38;;;1.60;;
44026;SDS011;29696;55.698;37.460;2022-07-29T00:18:05;4.05;;;1.92;;
44026;SDS011;29696;55.698;37.460;2022-07-29T00:20:31;2.92;;;1.83;;
44026;SDS011;29696;55.698;37.460;2022-07-29T00:22:58;1.83;;;1.20;;
44026;SDS011;29696;55.698;37.460;2022-07-29T00:25:24;3.40;;;1.80;;
44026;SDS011;29696;55.698;37.460;2022-07-29T00:27:50;3.67;;;1.95;;
44026;SDS011;29696;55.698;37.460;2022-07-29T00:30:17;3.40;;;1.63;;
44026;SDS011;29696;55.698;37.460;2022-07-29T00:32:43;5.55;;;1.90;;
44026;SDS011;29696;55.698;37.460;2022-07-29T00:35:09;3.88;;;2.13;;
44026;SDS011;29696;55.698;37.460;2022-07-29T00:40:20;7.85;;;1.83;;
44026;SDS011;29696;55.698;37.460;2022-07-29T00:42:48;5.43;;;1.85;;
44026;SDS011;29696;55.698;37.460;2022-07-29T00:45:16;4.40;;;2.00;;
44026;SDS011;29696;55.698;37.460;2022-07-29T00:47:43;5.40;;;1.80;;
44026;SDS011;29696;55.698;37.460;2022-07-29T00:50:10;2.05;;;1.45;;
44026;SDS011;29696;55.698;37.460;2022-07-29T00:52:39;2.22;;;1.80;;
44026;SDS011;29696;55.698;37.460;2022-07-29T00:55:07;3.67;;;2.15;;
44026;SDS011;29696;55.698;37.460;2022-07-29T00:57:37;3.95;;;1.80;;
44026;SDS011;29696;55.698;37.460;2022-07-29T01:00:05;5.57;;;1.85;;
44026;SDS011;29696;55.698;37.460;2022-07-29T01:02:33;3.42;;;1.52;;
44026;SDS011;29696;55.698;37.460;2022-07-29T01:05:00;6.03;;;2.33;;
44026;SDS011;29696;55.698;37.460;2022-07-29T01:07:29;4.05;;;1.90;;
44026;SDS011;29696;55.698;37.460;2022-07-29T01:09:58;5.65;;;2.35;;
44026;SDS011;29696;55.698;37.460;2022-07-29T01:12:25;6.15;;;3.03;;
44026;SDS011;29696;55.698;37.460;2022-07-29T01:14:54;4.68;;;2.13;;
44026;SDS011;29696;55.698;37.460;2022-07-29T01:29:59;8.27;;;2.72;;
44026;SDS011;29696;55.698;37.460;2022-07-29T01:32:31;4.45;;;3.05;;
44026;SDS011;29696;55.698;37.460;2022-07-29T01:35:22;4.35;;;2.75;;
44026;SDS011;29696;55.698;37.460;2022-07-29T01:37:54;5.72;;;2.80;;
44026;SDS011;29696;55.698;37.460;2022-07-29T01:40:34;3.70;;;1.92;;
44026;SDS011;29696;55.698;37.460;2022-07-29T01:43:49;4.30;;;2.70;;
44026;SDS011;29696;55.698;37.460;2022-07-29T01:46:20;5.18;;;2.25;;
44026;SDS011;29696;55.698;37.460;2022-07-29T01:48:55;2.40;;;2.20;;
44026;SDS011;29696;55.698;37.460;2022-07-29T01:51:33;5.18;;;2.00;;
44026;SDS011;29696;55.698;37.460;2022-07-29T01:54:08;3.95;;;2.72;;
44026;SDS011;29696;55.698;37.460;2022-07-29T01:56:39;3.15;;;1.95;;
44026;SDS011;29696;55.698;37.460;2022-07-29T01:59:08;4.82;;;3.20;;
44026;SDS011;29696;55.698;37.460;2022-07-29T02:01:36;9.75;;;6.90;;
44026;SDS011;29696;55.698;37.460;2022-07-29T02:04:04;11.48;;;10.32;;
44026;SDS011;29696;55.698;37.460;2022-07-29T02:06:33;15.18;;;13.70;;
44026;SDS011;29696;55.698;37.460;2022-07-29T02:09:03;12.48;;;10.13;;
44026;SDS011;29696;55.698;37.460;2022-07-29T02:11:31;12.93;;;10.93;;
44026;SDS011;29696;55.698;37.460;2022-07-29T02:14:00;18.00;;;14.88;;
44026;SDS011;29696;55.698;37.460;2022-07-29T02:16:29;15.77;;;14.18;;
44026;SDS011;29696;55.698;37.460;2022-07-29T02:18:57;13.68;;;12.40;;
44026;SDS011;29696;55.698;37.460;2022-07-29T02:21:26;15.35;;;13.15;;
44026;SDS011;29696;55.698;37.460;2022-07-29T02:23:56;12.73;;;11.52;;
44026;SDS011;29696;55.698;37.460;2022-07-29T02:26:26;9.65;;;8.75;;
44026;SDS011;29696;55.698;37.460;2022-07-29T02:28:56;10.65;;;9.55;;
44026;SDS011;29696;55.698;37.460;2022-07-29T02:31:25;13.65;;;9.43;;
44026;SDS011;29696;55.698;37.460;2022-07-29T02:33:56;9.35;;;8.48;;
44026;SDS011;29696;55.698;37.460;2022-07-29T02:36:23;9.52;;;8.60;;
44026;SDS011;29696;55.698;37.460;2022-07-29T02:38:51;14.25;;;10.95;;
44026;SDS011;29696;55.698;37.460;2022-07-29T02:41:24;14.02;;;9.30;;
44026;SDS011;29696;55.698;37.460;2022-07-29T02:43:56;18.55;;;11.15;;
44026;SDS011;29696;55.698;37.460;2022-07-29T02:46:29;19.67;;;11.07;;
44026;SDS011;29696;55.698;37.460;2022-07-29T02:52:08;12.30;;;8.23;;
44026;SDS011;29696;55.698;37.460;2022-07-29T02:54:53;11.82;;;7.78;;
44026;SDS011;29696;55.698;37.460;2022-07-29T02:57:26;9.65;;;5.95;;
44026;SDS011;29696;55.698;37.460;2022-07-29T02:59:58;5.75;;;4.97;;
44026;SDS011;29696;55.698;37.460;2022-07-29T03:02:29;6.00;;;5.40;;
44026;SDS011;29696;55.698;37.460;2022-07-29T03:05:00;7.95;;;3.95;;
44026;SDS011;29696;55.698;37.460;2022-07-29T03:07:30;5.60;;;2.67;;
44026;SDS011;29696;55.698;37.460;2022-07-29T03:09:57;4.25;;;1.85;;
44026;SDS011;29696;55.698;37.460;2022-07-29T03:12:24;11.30;;;1.58;;
44026;SDS011;29696;55.698;37.460;2022-07-29T03:14:52;6.93;;;1.80;;
44026;SDS011;29696;55.698;37.460;2022-07-29T03:17:19;5.45;;;1.77;;
44026;SDS011;29696;55.698;37.460;2022-07-29T03:19:47;1.73;;;1.00;;
44026;SDS011;29696;55.698;37.460;2022-07-29T03:22:14;7.15;;;1.40;;
44026;SDS011;29696;55.698;37.460;2022-07-29T03:24:40;5.35;;;2.08;;
44026;SDS011;29696;55.698;37.460;2022-07-29T03:27:06;4.30;;;2.20;;
44026;SDS011;29696;55.698;37.460;2022-07-29T03:29:33;4.50;;;1.58;;
44026;SDS011;29696;55.698;37.460;2022-07-29T03:32:00;6.97;;;2.60;;
44026;SDS011;29696;55.698;37.460;2022-07-29T03:34:28;3.38;;;1.77;;
44026;SDS011;29696;55.698;37.460;2022-07-29T03:36:54;4.15;;;1.80;;
44026;SDS011;29696;55.698;37.460;2022-07-29T03:39:21;3.78;;;1.45;;
44026;SDS011;29696;55.698;37.460;2022-07-29T03:41:53;2.70;;;1.23;;
44026;SDS011;29696;55.698;37.460;2022-07-29T03:44:22;4.75;;;1.42;;
44026;SDS011;29696;55.698;37.460;2022-07-29T03:46:50;2.25;;;1.88;;
44026;SDS011;29696;55.698;37.460;2022-07-29T03:49:18;3.67;;;1.33;;
44026;SDS011;29696;55.698;37.460;2022-07-29T03:51:45;2.25;;;1.00;;
44026;SDS011;29696;55.698;37.460;2022-07-29T03:54:12;3.90;;;1.83;;
44026;SDS011;29696;55.698;37.460;2022-07-29T03:56:42;4.30;;;1.73;;
44026;SDS011;29696;55.698;37.460;2022-07-29T03:59:14;3.15;;;1.10;;
44026;SDS011;29696;55.698;37.460;2022-07-29T04:01:41;3.92;;;2.25;;
44026;SDS011;29696;55.698;37.460;2022-07-29T04:04:08;4.60;;;1.40;;
44026;SDS011;29696;55.698;37.460;2022-07-29T04:06:39;4.15;;;1.70;;
44026;SDS011;29696;55.698;37.460;2022-07-29T04:09:26;1.70;;;1.60;;
44026;SDS011;29696;55.698;37.460;2022-07-29T04:11:52;4.55;;;1.80;;
44026;SDS011;29696;55.698;37.460;2022-07-29T04:14:19;3.38;;;1.40;;
44026;SDS011;29696;55.698;37.460;2022-07-29T04:16:46;3.00;;;1.75;;
44026;SDS011;29696;55.698;37.460;2022-07-29T04:19:12;3.40;;;1.45;;
44026;SDS011;29696;55.698;37.460;2022-07-29T04:21:39;2.78;;;1.20;;
44026;SDS011;29696;55.698;37.460;2022-07-29T04:24:07;3.17;;;1.20;;
44026;SDS011;29696;55.698;37.460;2022-07-29T04:26:33;4.80;;;1.75;;
44026;SDS011;29696;55.698;37.460;2022-07-29T04:29:00;9.63;;;1.70;;
44026;SDS011;29696;55.698;37.460;2022-07-29T04:31:27;2.50;;;1.42;;
44026;SDS011;29696;55.698;37.460;2022-07-29T04:33:53;4.90;;;1.92;;
44026;SDS011;29696;55.698;37.460;2022-07-29T04:36:19;2.70;;;1.45;;
44026;SDS011;29696;55.698;37.460;2022-07-29T04:38:46;3.78;;;1.48;;
44026;SDS011;29696;55.698;37.460;2022-07-29T04:41:12;4.18;;;1.88;;
44026;SDS011;29696;55.698;37.460;2022-07-29T04:43:39;1.90;;;1.38;;
44026;SDS011;29696;55.698;37.460;2022-07-29T04:46:06;3.35;;;1.65;;
44026;SDS011;29696;55.698;37.460;2022-07-29T04:48:32;3.30;;;1.50;;
44026;SDS011;29696;55.698;37.460;2022-07-29T04:50:59;4.82;;;1.58;;
44026;SDS011;29696;55.698;37.460;2022-07-29T04:53:25;4.78;;;1.42;;
44026;SDS011;29696;55.698;37.460;2022-07-29T04:55:51;2.83;;;1.17;;
44026;SDS011;29696;55.698;37.460;2022-07-29T04:58:17;2.97;;;1.48;;
44026;SDS011;29696;55.698;37.460;2022-07-29T05:00:44;4.63;;;2.00;;
44026;SDS011;29696;55.698;37.460;2022-07-29T05:03:10;1.73;;;1.40;;
44026;SDS011;29696;55.698;37.460;2022-07-29T05:05:36;2.65;;;1.20;;
44026;SDS011;29696;55.698;37.460;2022-07-29T05:08:03;3.88;;;2.10;;
44026;SDS011;29696;55.698;37.460;2022-07-29T05:10:29;3.95;;;1.52;;
44026;SDS011;29696;55.698;37.460;2022-07-29T05:12:55;4.93;;;2.20;;
44026;SDS011;29696;55.698;37.460;2022-07-29T05:15:22;4.88;;;1.88;;
44026;SDS011;29696;55.698;37.460;2022-07-29T05:17:48;1.73;;;1.50;;
44026;SDS011;29696;55.698;37.460;2022-07-29T05:20:14;3.17;;;1.67;;
44026;SDS011;29696;55.698;37.460;2022-07-29T05:22:40;5.22;;;1.88;;
44026;SDS011;29696;55.698;37.460;2022-07-29T05:25:07;3.97;;;1.38;;
44026;SDS011;29696;55.698;37.460;2022-07-29T05:27:35;6.43;;;2.13;;
44026;SDS011;29696;55.698;37.460;2022-07-29T05:30:02;7.65;;;1.50;;
44026;SDS011;29696;55.698;37.460;2022-07-29T05:32:29;1.95;;;1.63;;
44026;SDS011;29696;55.698;37.460;2022-07-29T05:34:55;4.47;;;2.25;;
44026;SDS011;29696;55.698;37.460;2022-07-29T05:37:22;3.45;;;1.55;;
44026;SDS011;29696;55.698;37.460;2022-07-29T05:39:48;5.60;;;1.33;;
44026;SDS011;29696;55.698;37.460;2022-07-29T05:42:14;3.72;;;1.52;;
44026;SDS011;29696;55.698;37.460;2022-07-29T05:44:41;1.85;;;0.98;;
44026;SDS011;29696;55.698;37.460;2022-07-29T05:47:07;4.57;;;1.67;;
44026;SDS011;29696;55.698;37.460;2022-07-29T05:49:33;2.55;;;1.33;;
44026;SDS011;29696;55.698;37.460;2022-07-29T05:51:59;3.80;;;1.75;;
44026;SDS011;29696;55.698;37.460;2022-07-29T05:54:26;4.82;;;1.50;;
44026;SDS011;29696;55.698;37.460;2022-07-29T05:56:52;2.78;;;1.27;;
44026;SDS011;29696;55.698;37.460;2022-07-29T05:59:18;3.55;;;1.63;;
44026;SDS011;29696;55.698;37.460;2022-07-29T06:01:44;2.83;;;1.98;;
44026;SDS011;29696;55.698;37.460;2022-07-29T06:04:11;5.00;;;1.50;;
44026;SDS011;29696;55.698;37.460;2022-07-29T06:06:37;4.82;;;1.73;;
44026;SDS011;29696;55.698;37.460;2022-07-29T06:09:03;5.93;;;1.48;;
44026;SDS011;29696;55.698;37.460;2022-07-29T06:11:30;1.90;;;1.20;;
44026;SDS011;29696;55.698;37.460;2022-07-29T06:13:56;4.30;;;1.42;;
44026;SDS011;29696;55.698;37.460;2022-07-29T06:16:22;3.50;;;1.45;;
44026;SDS011;29696;55.698;37.460;2022-07-29T06:18:49;3.95;;;1.92;;
44026;SDS011;29696;55.698;37.460;2022-07-29T06:21:15;3.70;;;1.63;;
44026;SDS011;29696;55.698;37.460;2022-07-29T06:23:42;3.95;;;1.30;;
44026;SDS011;29696;55.698;37.460;2022-07-29T06:26:10;7.10;;;2.35;;
44026;SDS011;29696;55.698;37.460;2022-07-29T06:28:37;2.88;;;1.23;;
44026;SDS011;29696;55.698;37.460;2022-07-29T06:31:03;1.90;;;1.40;;
44026;SDS011;29696;55.698;37.460;2022-07-29T06:33:31;3.10;;;1.50;;
44026;SDS011;29696;55.698;37.460;2022-07-29T06:35:57;2.22;;;1.42;;
44026;SDS011;29696;55.698;37.460;2022-07-29T06:38:24;3.10;;;1.25;;
44026;SDS011;29696;55.698;37.460;2022-07-29T06:40:50;2.78;;;1.30;;
44026;SDS011;29696;55.698;37.460;2022-07-29T06:43:48;1.45;;;1.15;;
44026;SDS011;29696;55.698;37.460;2022-07-29T06:46:17;2.58;;;1.33;;
44026;SDS011;29696;55.698;37.460;2022-07-29T06:48:45;2.40;;;1.42;;
44026;SDS011;29696;55.698;37.460;2022-07-29T06:51:13;4.57;;;1.13;;
44026;SDS011;29696;55.698;37.460;2022-07-29T06:53:39;3.22;;;1.48;;
44026;SDS011;29696;55.698;37.460;2022-07-29T06:56:06;1.88;;;1.10;;
44026;SDS011;29696;55.698;37.460;2022-07-29T06:58:35;6.45;;;1.80;;
44026;SDS011;29696;55.698;37.460;2022-07-29T07:01:03;1.50;;;1.33;;
44026;SDS011;29696;55.698;37.460;2022-07-29T07:03:31;2.70;;;1.30;;
44026;SDS011;29696;55.698;37.460;2022-07-29T07:05:57;5.18;;;1.25;;
44026;SDS011;29696;55.698;37.460;2022-07-29T07:08:24;1.58;;;1.02;;
44026;SDS011;29696;55.698;37.460;2022-07-29T07:10:51;5.88;;;2.00;;
44026;SDS011;29696;55.698;37.460;2022-07-29T07:13:18;1.77;;;0.95;;
44026;SDS011;29696;55.698;37.460;2022-07-29T07:15:45;2.42;;;1.20;;
44026;SDS011;29696;55.698;37.460;2022-07-29T07:18:14;4.20;;;1.40;;
44026;SDS011;29696;55.698;37.460;2022-07-29T07:20:41;1.48;;;1.15;;
44026;SDS011;29696;55.698;37.460;2022-07-29T07:23:08;2.50;;;1.13;;
44026;SDS011;29696;55.698;37.460;2022-07-29T07:25:34;2.20;;;1.08;;
44026;SDS011;29696;55.698;37.460;2022-07-29T07:28:01;2.85;;;0.60;;
44026;SDS011;29696;55.698;37.460;2022-07-29T07:30:27;5.70;;;1.75;;
44026;SDS011;29696;55.698;37.460;2022-07-29T07:32:54;2.65;;;1.50;;
44026;SDS011;29696;55.698;37.460;2022-07-29T07:35:21;6.60;;;1.75;;
44026;SDS011;29696;55.698;37.460;2022-07-29T07:37:47;2.65;;;1.52;;
44026;SDS011;29696;55.698;37.460;2022-07-29T07:40:14;3.60;;;1.10;;
44026;SDS011;29696;55.698;37.460;2022-07-29T07:42:40;2.42;;;1.75;;
44026;SDS011;29696;55.698;37.460;2022-07-29T07:45:07;1.88;;;1.10;;
44026;SDS011;29696;55.698;37.460;2022-07-29T07:47:37;2.47;;;1.23;;
44026;SDS011;29696;55.698;37.460;2022-07-29T07:50:08;13.68;;;1.63;;
44026;SDS011;29696;55.698;37.460;2022-07-29T07:52:45;3.33;;;1.50;;
44026;SDS011;29696;55.698;37.460;2022-07-29T07:55:15;1.60;;;1.42;;
44026;SDS011;29696;55.698;37.460;2022-07-29T07:57:42;2.30;;;1.20;;
44026;SDS011;29696;55.698;37.460;2022-07-29T08:00:08;1.83;;;1.08;;
44026;SDS011;29696;55.698;37.460;2022-07-29T08:02:38;1.60;;;0.90;;
44026;SDS011;29696;55.698;37.460;2022-07-29T08:05:06;1.63;;;1.00;;
44026;SDS011;29696;55.698;37.460;2022-07-29T08:07:33;3.72;;;1.52;;
44026;SDS011;29696;55.698;37.460;2022-07-29T08:10:00;4.18;;;2.33;;
44026;SDS011;29696;55.698;37.460;2022-07-29T08:12:26;2.92;;;1.60;;
44026;SDS011;29696;55.698;37.460;2022-07-29T08:14:52;2.40;;;1.00;;
44026;SDS011;29696;55.698;37.460;2022-07-29T08:17:19;6.18;;;1.25;;
44026;SDS011;29696;55.698;37.460;2022-07-29T08:19:46;2.97;;;1.20;;
44026;SDS011;29696;55.698;37.460;2022-07-29T08:22:14;2.70;;;1.25;;
44026;SDS011;29696;55.698;37.460;2022-07-29T08:24:40;3.55;;;0.93;;
44026;SDS011;29696;55.698;37.460;2022-07-29T08:27:10;5.82;;;1.20;;
44026;SDS011;29696;55.698;37.460;2022-07-29T08:29:36;10.82;;;1.30;;
44026;SDS011;29696;55.698;37.460;2022-07-29T08:32:03;5.07;;;1.05;;
44026;SDS011;29696;55.698;37.460;2022-07-29T08:34:30;2.33;;;0.73;;
44026;SDS011;29696;55.698;37.460;2022-07-29T08:36:57;5.53;;;1.20;;
44026;SDS011;29696;55.698;37.460;2022-07-29T08:39:23;4.35;;;1.05;;
44026;SDS011;29696;55.698;37.460;2022-07-29T08:41:50;4.15;;;1.10;;
44026;SDS011;29696;55.698;37.460;2022-07-29T08:44:18;1.27;;;0.88;;
44026;SDS011;29696;55.698;37.460;2022-07-29T08:46:45;3.63;;;0.88;;
44026;SDS011;29696;55.698;37.460;2022-07-29T08:49:11;4.25;;;1.10;;
44026;SDS011;29696;55.698;37.460;2022-07-29T08:51:39;3.03;;;1.33;;
44026;SDS011;29696;55.698;37.460;2022-07-29T08:54:08;5.50;;;1.52;;
44026;SDS011;29696;55.698;37.460;2022-07-29T08:56:36;2.20;;;1.05;;
44026;SDS011;29696;55.698;37.460;2022-07-29T08:59:03;1.52;;;0.80;;
44026;SDS011;29696;55.698;37.460;2022-07-29T09:01:32;1.40;;;1.23;;
44026;SDS011;29696;55.698;37.460;2022-07-29T09:04:03;4.28;;;1.38;;
44026;SDS011;29696;55.698;37.460;2022-07-29T09:06:32;0.70;;;0.70;;
44026;SDS011;29696;55.698;37.460;2022-07-29T09:09:02;1.00;;;0.90;;
44026;SDS011;29696;55.698;37.460;2022-07-29T09:11:31;1.52;;;1.13;;
44026;SDS011;29696;55.698;37.460;2022-07-29T09:13:58;2.90;;;0.85;;
44026;SDS011;29696;55.698;37.460;2022-07-29T09:16:24;1.55;;;1.00;;
44026;SDS011;29696;55.698;37.460;2022-07-29T09:18:50;2.80;;;1.30;;
44026;SDS011;29696;55.698;37.460;2022-07-29T09:21:17;3.92;;;1.00;;
44026;SDS011;29696;55.698;37.460;2022-07-29T09:24:09;3.05;;;0.70;;
44026;SDS011;29696;55.698;37.460;2022-07-29T09:26:38;2.05;;;0.95;;
44026;SDS011;29696;55.698;37.460;2022-07-29T09:29:10;2.38;;;0.65;;
44026;SDS011;29696;55.698;37.460;2022-07-29T09:31:39;3.60;;;0.90;;
44026;SDS011;29696;55.698;37.460;2022-07-29T09:34:06;1.42;;;0.82;;
44026;SDS011;29696;55.698;37.460;2022-07-29T09:36:47;1.40;;;1.00;;
44026;SDS011;29696;55.698;37.460;2022-07-29T09:39:14;5.00;;;1.02;;
44026;SDS011;29696;55.698;37.460;2022-07-29T09:41:53;3.33;;;1.35;;
44026;SDS011;29696;55.698;37.460;2022-07-29T09:44:21;1.23;;;0.82;;
44026;SDS011;29696;55.698;37.460;2022-07-29T09:46:59;3.13;;;1.02;;
44026;SDS011;29696;55.698;37.460;2022-07-29T09:49:33;4.55;;;1.20;;
44026;SDS011;29696;55.698;37.460;2022-07-29T09:52:04;2.78;;;1.00;;
44026;SDS011;29696;55.698;37.460;2022-07-29T09:54:51;1.90;;;1.05;;
44026;SDS011;29696;55.698;37.460;2022-07-29T09:57:23;2.97;;;0.93;;
44026;SDS011;29696;55.698;37.460;2022-07-29T10:02:45;0.63;;;0.63;;
44026;SDS011;29696;55.698;37.460;2022-07-29T10:05:30;2.38;;;1.20;;
44026;SDS011;29696;55.698;37.460;2022-07-29T10:07:57;4.80;;;0.82;;
44026;SDS011;29696;55.698;37.460;2022-07-29T10:10:27;3.80;;;0.93;;
44026;SDS011;29696;55.698;37.460;2022-07-29T10:13:00;1.45;;;0.80;;
44026;SDS011;29696;55.698;37.460;2022-07-29T10:15:31;1.63;;;1.13;;
44026;SDS011;29696;55.698;37.460;2022-07-29T10:17:59;0.73;;;0.70;;
44026;SDS011;29696;55.698;37.460;2022-07-29T10:20:26;2.85;;;1.45;;
44026;SDS011;29696;55.698;37.460;2022-07-29T10:22:53;2.25;;;1.20;;
44026;SDS011;29696;55.698;37.460;2022-07-29T10:25:21;1.02;;;0.75;;
44026;SDS011;29696;55.698;37.460;2022-07-29T10:27:49;2.97;;;0.75;;
44026;SDS011;29696;55.698;37.460;2022-07-29T10:30:17;2.00;;;1.05;;
44026;SDS011;29696;55.698;37.460;2022-07-29T10:39:32;1.90;;;0.80;;
44026;SDS011;29696;55.698;37.460;2022-07-29T10:42:58;1.73;;;1.05;;
44026;SDS011;29696;55.698;37.460;2022-07-29T10:45:33;2.97;;;1.35;;
44026;SDS011;29696;55.698;37.460;2022-07-29T10:48:03;1.27;;;0.77;;
44026;SDS011;29696;55.698;37.460;2022-07-29T10:51:14;0.93;;;0.82;;
44026;SDS011;29696;55.698;37.460;2022-07-29T10:56:33;1.02;;;0.63;;
44026;SDS011;29696;55.698;37.460;2022-07-29T10:59:46;1.67;;;0.95;;
44026;SDS011;29696;55.698;37.460;2022-07-29T11:05:21;1.00;;;0.90;;
44026;SDS011;29696;55.698;37.460;2022-07-29T11:13:59;2.78;;;1.05;;
44026;SDS011;29696;55.698;37.460;2022-07-29T11:16:25;2.08;;;1.27;;
44026;SDS011;29696;55.698;37.460;2022-07-29T11:21:56;2.40;;;1.23;;
44026;SDS011;29696;55.698;37.460;2022-07-29T11:24:27;2.35;;;1.17;;
44026;SDS011;29696;55.698;37.460;2022-07-29T11:29:57;6.65;;;1.38;;
44026;SDS011;29696;55.698;37.460;2022-07-29T11:32:37;3.20;;;1.30;;
44026;SDS011;29696;55.698;37.460;2022-07-29T11:35:11;3.15;;;1.63;;
44026;SDS011;29696;55.698;37.460;2022-07-29T11:41:37;3.83;;;1.25;;
44026;SDS011;29696;55.698;37.460;2022-07-29T11:43:57;2.97;;;0.95;;
44026;SDS011;29696;55.698;37.460;2022-07-29T11:49:24;2.78;;;1.38;;
44026;SDS011;29696;55.698;37.460;2022-07-29T11:51:53;2.22;;;1.30;;
44026;SDS011;29696;55.698;37.460;2022-07-29T11:54:23;1.85;;;1.17;;
44026;SDS011;29696;55.698;37.460;2022-07-29T11:56:54;1.95;;;0.88;;
44026;SDS011;29696;55.698;37.460;2022-07-29T11:59:21;2.67;;;1.27;;
44026;SDS011;29696;55.698;37.460;2022-07-29T12:01:57;0.77;;;0.77;;
44026;SDS011;29696;55.698;37.460;2022-07-29T12:04:24;1.67;;;0.80;;
44026;SDS011;29696;55.698;37.460;2022-07-29T12:06:52;2.95;;;1.35;;
44026;SDS011;29696;55.698;37.460;2022-07-29T12:09:20;2.85;;;1.00;;
44026;SDS011;29696;55.698;37.460;2022-07-29T12:11:47;1.63;;;0.60;;
44026;SDS011;29696;55.698;37.460;2022-07-29T12:14:27;1.38;;;0.80;;
44026;SDS011;29696;55.698;37.460;2022-07-29T12:16:54;2.75;;;0.93;;
44026;SDS011;29696;55.698;37.460;2022-07-29T12:19:20;3.08;;;1.15;;
44026;SDS011;29696;55.698;37.460;2022-07-29T12:21:47;1.33;;;0.73;;
44026;SDS011;29696;55.698;37.460;2022-07-29T12:24:14;2.90;;;0.93;;
44026;SDS011;29696;55.698;37.460;2022-07-29T12:26:51;2.97;;;1.15;;
44026;SDS011;29696;55.698;37.460;2022-07-29T12:29:19;5.95;;;1.10;;
44026;SDS011;29696;55.698;37.460;2022-07-29T12:31:46;2.10;;;1.33;;
44026;SDS011;29696;55.698;37.460;2022-07-29T12:34:13;5.35;;;1.02;;
44026;SDS011;29696;55.698;37.460;2022-07-29T12:36:41;3.08;;;1.05;;
44026;SDS011;29696;55.698;37.460;2022-07-29T12:39:08;2.17;;;0.90;;
44026;SDS011;29696;55.698;37.460;2022-07-29T12:41:36;3.47;;;0.95;;
44026;SDS011;29696;55.698;37.460;2022-07-29T12:44:03;6.05;;;1.52;;
44026;SDS011;29696;55.698;37.460;2022-07-29T12:46:29;1.13;;;0.95;;
44026;SDS011;29696;55.698;37.460;2022-07-29T12:48:56;1.48;;;1.25;;
44026;SDS011;29696;55.698;37.460;2022-07-29T12:51:44;1.33;;;0.70;;
44026;SDS011;29696;55.698;37.460;2022-07-29T12:54:10;2.95;;;0.85;;
44026;SDS011;29696;55.698;37.460;2022-07-29T12:56:39;2.47;;;0.95;;
44026;SDS011;29696;55.698;37.460;2022-07-29T12:59:14;1.38;;;1.00;;
44026;SDS011;29696;55.698;37.460;2022-07-29T13:01:48;0.98;;;0.75;;
44026;SDS011;29696;55.698;37.460;2022-07-29T13:04:31;1.60;;;0.90;;
44026;SDS011;29696;55.698;37.460;2022-07-29T13:07:02;3.65;;;1.30;;
44026;SDS011;29696;55.698;37.460;2022-07-29T13:12:07;2.70;;;1.02;;
44026;SDS011;29696;55.698;37.460;2022-07-29T13:14:39;6.35;;;1.25;;
44026;SDS011;29696;55.698;37.460;2022-07-29T13:17:08;1.90;;;1.08;;
44026;SDS011;29696;55.698;37.460;2022-07-29T13:19:48;1.85;;;1.20;;
44026;SDS011;29696;55.698;37.460;2022-07-29T13:22:17;2.00;;;1.33;;
44026;SDS011;29696;55.698;37.460;2022-07-29T13:24:56;3.95;;;2.00;;
44026;SDS011;29696;55.698;37.460;2022-07-29T13:27:28;4.93;;;1.30;;
44026;SDS011;29696;55.698;37.460;2022-07-29T13:29:56;1.73;;;1.45;;
44026;SDS011;29696;55.698;37.460;2022-07-29T13:32:24;1.77;;;1.52;;
44026;SDS011;29696;55.698;37.460;2022-07-29T13:34:51;1.30;;;1.17;;
44026;SDS011;29696;55.698;37.460;2022-07-29T13:37:18;2.22;;;1.00;;
44026;SDS011;29696;55.698;37.460;2022-07-29T13:39:45;1.42;;;0.85;;
44026;SDS011;29696;55.698;37.460;2022-07-29T13:42:11;1.65;;;0.82;;
44026;SDS011;29696;55.698;37.460;2022-07-29T13:44:39;1.38;;;0.98;;
44026;SDS011;29696;55.698;37.460;2022-07-29T13:47:06;1.75;;;1.08;;
44026;SDS011;29696;55.698;37.460;2022-07-29T13:49:34;3.45;;;1.10;;
44026;SDS011;29696;55.698;37.460;2022-07-29T13:52:01;1.10;;;0.98;;
44026;SDS011;29696;55.698;37.460;2022-07-29T13:54:27;2.55;;;1.40;;
44026;SDS011;29696;55.698;37.460;2022-07-29T13:56:54;1.13;;;0.85;;
44026;SDS011;29696;55.698;37.460;2022-07-29T13:59:20;1.85;;;1.17;;
44026;SDS011;29696;55.698;37.460;2022-07-29T14:01:46;6.55;;;1.27;;
44026;SDS011;29696;55.698;37.460;2022-07-29T14:04:13;2.00;;;0.93;;
44026;SDS011;29696;55.698;37.460;2022-07-29T14:06:39;1.02;;;0.93;;
44026;SDS011;29696;55.698;37.460;2022-07-29T14:09:06;2.92;;;1.23;;
44026;SDS011;29696;55.698;37.460;2022-07-29T14:11:34;8.35;;;1.08;;
44026;SDS011;29696;55.698;37.460;2022-07-29T14:14:01;0.88;;;0.68;;
44026;SDS011;29696;55.698;37.460;2022-07-29T14:16:27;1.85;;;1.08;;
44026;SDS011;29696;55.698;37.460;2022-07-29T14:18:54;1.83;;;0.90;;
44026;SDS011;29696;55.698;37.460;2022-07-29T14:21:20;2.13;;;1.20;;
44026;SDS011;29696;55.698;37.460;2022-07-29T14:23:46;6.43;;;1.65;;
44026;SDS011;29696;55.698;37.460;2022-07-29T14:26:13;2.45;;;1.48;;
44026;SDS011;29696;55.698;37.460;2022-07-29T14:28:39;3.55;;;1.00;;
44026;SDS011;29696;55.698;37.460;2022-07-29T14:31:06;3.20;;;0.90;;
44026;SDS011;29696;55.698;37.460;2022-07-29T14:33:32;3.88;;;1.25;;
44026;SDS011;29696;55.698;37.460;2022-07-29T14:35:58;5.57;;;1.58;;
44026;SDS011;29696;55.698;37.460;2022-07-29T14:38:24;1.05;;;0.88;;
44026;SDS011;29696;55.698;37.460;2022-07-29T14:40:51;9.18;;;1.00;;
44026;SDS011;29696;55.698;37.460;2022-07-29T14:43:17;1.52;;;0.98;;
44026;SDS011;29696;55.698;37.460;2022-07-29T14:45:44;2.25;;;0.93;;
44026;SDS011;29696;55.698;37.460;2022-07-29T14:48:10;3.95;;;1.48;;
44026;SDS011;29696;55.698;37.460;2022-07-29T14:50:37;5.25;;;1.83;;
44026;SDS011;29696;55.698;37.460;2022-07-29T14:53:03;4.05;;;1.27;;
44026;SDS011;29696;55.698;37.460;2022-07-29T14:55:30;2.38;;;1.20;;
44026;SDS011;29696;55.698;37.460;2022-07-29T14:57:56;4.63;;;1.58;;
44026;SDS011;29696;55.698;37.460;2022-07-29T15:00:24;3.85;;;1.48;;
44026;SDS011;29696;55.698;37.460;2022-07-29T15:02:51;3.28;;;1.15;;
44026;SDS011;29696;55.698;37.460;2022-07-29T15:05:17;4.22;;;2.03;;
44026;SDS011;29696;55.698;37.460;2022-07-29T15:07:44;3.10;;;1.10;;
44026;SDS011;29696;55.698;37.460;2022-07-29T15:10:10;3.17;;;1.00;;
44026;SDS011;29696;55.698;37.460;2022-07-29T15:12:36;2.10;;;1.10;;
44026;SDS011;29696;55.698;37.460;2022-07-29T15:15:03;1.75;;;1.25;;
44026;SDS011;29696;55.698;37.460;2022-07-29T15:17:30;1.27;;;1.10;;
44026;SDS011;29696;55.698;37.460;2022-07-29T15:19:56;2.40;;;1.60;;
44026;SDS011;29696;55.698;37.460;2022-07-29T15:22:23;3.35;;;1.40;;
44026;SDS011;29696;55.698;37.460;2022-07-29T15:24:49;5.75;;;2.08;;
44026;SDS011;29696;55.698;37.460;2022-07-29T15:27:15;3.83;;;1.88;;
44026;SDS011;29696;55.698;37.460;2022-07-29T15:29:42;8.98;;;3.10;;
44026;SDS011;29696;55.698;37.460;2022-07-29T15:32:09;8.02;;;2.75;;
44026;SDS011;29696;55.698;37.460;2022-07-29T15:34:36;6.10;;;1.88;;
44026;SDS011;29696;55.698;37.460;2022-07-29T15:37:06;9.55;;;1.95;;
44026;SDS011;29696;55.698;37.460;2022-07-29T15:39:33;4.57;;;1.63;;